sensor_id;sensor_type;location;lat;lon;timestamp;temperature;humidity
68051;DHT22;54839;51.364;7.246;2023-04-08T00:00:02;6.40;99.90
68051;DHT22;54839;51.364;7.246;2023-04-08T00:02:28;6.40;99.90
68051;DHT22;54839;51.364;7.246;2023-04-08T00:04:54;6.40;99.90
68051;DHT22;54839;51.364;7.246;2023-04-08T00:07:19;6.30;99.90
68051;DHT22;54839;51.364;7.246;2023-04-08T00:09:45;6.20;99.90
68051;DHT22;54839;51.364;7.246;2023-04-08T00:12:10;6.10;99.90
68051;DHT22;54839;51.364;7.246;2023-04-08T00:14:36;6.10;99.90
68051;DHT22;54839;51.364;7.246;2023-04-08T00:17:02;6.10;99.90
68051;DHT22;54839;51.364;7.246;2023-04-08T00:19:28;6.10;99.90
68051;DHT22;54839;51.364;7.246;2023-04-08T00:21:53;6.00;99.90
68051;DHT22;54839;51.364;7.246;2023-04-08T00:24:19;6.00;99.90
68051;DHT22;54839;51.364;7.246;2023-04-08T00:26:44;6.00;99.90
68051;DHT22;54839;51.364;7.246;2023-04-08T00:29:10;6.00;99.90
68051;DHT22;54839;51.364;7.246;2023-04-08T00:31:36;6.10;99.90
68051;DHT22;54839;51.364;7.246;2023-04-08T00:34:01;6.20;99.90
68051;DHT22;54839;51.364;7.246;2023-04-08T00:36:27;6.30;99.90
68051;DHT22;54839;51.364;7.246;2023-04-08T00:38:52;6.30;99.90
68051;DHT22;54839;51.364;7.246;2023-04-08T00:41:18;6.40;99.90
68051;DHT22;54839;51.364;7.246;2023-04-08T00:43:44;6.40;99.90
68051;DHT22;54839;51.364;7.246;2023-04-08T00:46:09;6.40;99.90
68051;DHT22;54839;51.364;7.246;2023-04-08T00:48:35;6.50;99.90
68051;DHT22;54839;51.364;7.246;2023-04-08T00:51:01;6.40;99.90
68051;DHT22;54839;51.364;7.246;2023-04-08T00:53:29;6.50;99.90
68051;DHT22;54839;51.364;7.246;2023-04-08T00:55:54;6.50;99.90
68051;DHT22;54839;51.364;7.246;2023-04-08T00:58:20;6.50;99.90
68051;DHT22;54839;51.364;7.246;2023-04-08T01:00:51;6.50;99.90
68051;DHT22;54839;51.364;7.246;2023-04-08T01:03:34;6.40;99.90
68051;DHT22;54839;51.364;7.246;2023-04-08T01:06:21;6.40;99.90
68051;DHT22;54839;51.364;7.246;2023-04-08T01:08:48;6.40;99.90
68051;DHT22;54839;51.364;7.246;2023-04-08T01:11:16;6.50;99.90
68051;DHT22;54839;51.364;7.246;2023-04-08T01:13:43;6.40;99.90
68051;DHT22;54839;51.364;7.246;2023-04-08T01:16:12;6.50;99.90
68051;DHT22;54839;51.364;7.246;2023-04-08T01:18:39;6.40;99.90
68051;DHT22;54839;51.364;7.246;2023-04-08T01:21:06;6.40;99.90
68051;DHT22;54839;51.364;7.246;2023-04-08T01:23:39;6.40;99.90
68051;DHT22;54839;51.364;7.246;2023-04-08T01:26:09;6.40;99.90
68051;DHT22;54839;51.364;7.246;2023-04-08T01:28:35;6.30;99.90
68051;DHT22;54839;51.364;7.246;2023-04-08T01:31:01;6.20;99.90
68051;DHT22;54839;51.364;7.246;2023-04-08T01:33:28;6.30;99.90
68051;DHT22;54839;51.364;7.246;2023-04-08T01:35:55;6.30;99.90
68051;DHT22;54839;51.364;7.246;2023-04-08T01:38:23;6.30;99.90
68051;DHT22;54839;51.364;7.246;2023-04-08T01:40:50;6.30;99.90
68051;DHT22;54839;51.364;7.246;2023-04-08T01:43:17;6.40;99.90
68051;DHT22;54839;51.364;7.246;2023-04-08T01:45:45;6.30;99.90
68051;DHT22;54839;51.364;7.246;2023-04-08T01:48:12;6.20;99.90
68051;DHT22;54839;51.364;7.246;2023-04-08T01:50:40;6.30;99.90
68051;DHT22;54839;51.364;7.246;2023-04-08T01:53:08;6.30;99.90
68051;DHT22;54839;51.364;7.246;2023-04-08T01:55:34;6.30;99.90
68051;DHT22;54839;51.364;7.246;2023-04-08T01:58:00;6.40;99.90
68051;DHT22;54839;51.364;7.246;2023-04-08T02:00:29;6.40;99.90
68051;DHT22;54839;51.364;7.246;2023-04-08T02:02:56;6.40;99.90
68051;DHT22;54839;51.364;7.246;2023-04-08T02:05:22;6.40;99.90
68051;DHT22;54839;51.364;7.246;2023-04-08T02:07:48;6.40;99.90
68051;DHT22;54839;51.364;7.246;2023-04-08T02:10:14;6.30;99.90
68051;DHT22;54839;51.364;7.246;2023-04-08T02:12:40;6.30;99.90
68051;DHT22;54839;51.364;7.246;2023-04-08T02:15:07;6.40;99.90
68051;DHT22;54839;51.364;7.246;2023-04-08T02:20:10;6.40;99.90
68051;DHT22;54839;51.364;7.246;2023-04-08T02:25:13;6.30;99.90
68051;DHT22;54839;51.364;7.246;2023-04-08T02:27:40;6.00;99.90
68051;DHT22;54839;51.364;7.246;2023-04-08T02:30:07;6.00;99.90
68051;DHT22;54839;51.364;7.246;2023-04-08T02:32:34;6.10;99.90
68051;DHT22;54839;51.364;7.246;2023-04-08T02:35:01;6.10;99.90
68051;DHT22;54839;51.364;7.246;2023-04-08T02:37:28;6.00;99.90
68051;DHT22;54839;51.364;7.246;2023-04-08T02:39:54;5.90;99.90
68051;DHT22;54839;51.364;7.246;2023-04-08T02:42:20;5.90;99.90
68051;DHT22;54839;51.364;7.246;2023-04-08T02:44:45;5.90;99.90
68051;DHT22;54839;51.364;7.246;2023-04-08T02:47:11;5.90;99.90
68051;DHT22;54839;51.364;7.246;2023-04-08T02:49:36;5.80;99.90
68051;DHT22;54839;51.364;7.246;2023-04-08T02:52:02;5.80;99.90
68051;DHT22;54839;51.364;7.246;2023-04-08T02:54:27;5.70;99.90
68051;DHT22;54839;51.364;7.246;2023-04-08T02:56:53;5.60;99.90
68051;DHT22;54839;51.364;7.246;2023-04-08T02:59:18;5.60;99.90
68051;DHT22;54839;51.364;7.246;2023-04-08T03:01:44;5.50;99.90
68051;DHT22;54839;51.364;7.246;2023-04-08T03:04:09;5.40;99.90
68051;DHT22;54839;51.364;7.246;2023-04-08T03:06:35;5.50;99.90
68051;DHT22;54839;51.364;7.246;2023-04-08T03:09:01;5.50;99.90
68051;DHT22;54839;51.364;7.246;2023-04-08T03:11:26;5.60;99.90
68051;DHT22;54839;51.364;7.246;2023-04-08T03:13:52;5.50;99.90
68051;DHT22;54839;51.364;7.246;2023-04-08T03:16:17;5.60;99.90
68051;DHT22;54839;51.364;7.246;2023-04-08T03:18:43;5.40;99.90
68051;DHT22;54839;51.364;7.246;2023-04-08T03:21:08;5.20;99.90
68051;DHT22;54839;51.364;7.246;2023-04-08T03:23:34;5.20;99.90
68051;DHT22;54839;51.364;7.246;2023-04-08T03:26:00;5.20;99.90
68051;DHT22;54839;51.364;7.246;2023-04-08T03:28:25;5.20;99.90
68051;DHT22;54839;51.364;7.246;2023-04-08T03:30:51;5.10;99.90
68051;DHT22;54839;51.364;7.246;2023-04-08T03:33:16;5.10;99.90
68051;DHT22;54839;51.364;7.246;2023-04-08T03:35:42;5.00;99.90
68051;DHT22;54839;51.364;7.246;2023-04-08T03:38:07;5.00;99.90
68051;DHT22;54839;51.364;7.246;2023-04-08T03:40:33;5.00;99.90
68051;DHT22;54839;51.364;7.246;2023-04-08T03:42:59;4.90;99.90
68051;DHT22;54839;51.364;7.246;2023-04-08T03:45:24;4.90;99.90
68051;DHT22;54839;51.364;7.246;2023-04-08T03:47:50;4.90;99.90
68051;DHT22;54839;51.364;7.246;2023-04-08T03:50:16;4.90;99.90
68051;DHT22;54839;51.364;7.246;2023-04-08T03:52:41;4.90;99.90
68051;DHT22;54839;51.364;7.246;2023-04-08T03:55:07;4.90;99.90
68051;DHT22;54839;51.364;7.246;2023-04-08T03:57:33;4.90;99.90
68051;DHT22;54839;51.364;7.246;2023-04-08T03:59:58;4.80;99.90
68051;DHT22;54839;51.364;7.246;2023-04-08T04:02:24;4.80;99.90
68051;DHT22;54839;51.364;7.246;2023-04-08T04:04:50;4.70;99.90
68051;DHT22;54839;51.364;7.246;2023-04-08T04:07:15;4.60;99.90
68051;DHT22;54839;51.364;7.246;2023-04-08T04:09:41;4.30;99.90
68051;DHT22;54839;51.364;7.246;2023-04-08T04:12:06;4.20;99.90
68051;DHT22;54839;51.364;7.246;2023-04-08T04:14:32;4.10;99.90
68051;DHT22;54839;51.364;7.246;2023-04-08T04:16:57;4.00;99.90
68051;DHT22;54839;51.364;7.246;2023-04-08T04:19:23;4.10;99.90
68051;DHT22;54839;51.364;7.246;2023-04-08T04:21:48;4.00;99.90
68051;DHT22;54839;51.364;7.246;2023-04-08T04:24:14;4.00;99.90
68051;DHT22;54839;51.364;7.246;2023-04-08T04:26:40;4.10;99.90
68051;DHT22;54839;51.364;7.246;2023-04-08T04:29:06;4.00;99.90
68051;DHT22;54839;51.364;7.246;2023-04-08T04:31:31;4.00;99.90
68051;DHT22;54839;51.364;7.246;2023-04-08T04:33:57;4.10;99.90
68051;DHT22;54839;51.364;7.246;2023-04-08T04:36:23;4.20;99.90
68051;DHT22;54839;51.364;7.246;2023-04-08T04:38:48;4.20;99.90
68051;DHT22;54839;51.364;7.246;2023-04-08T04:41:15;4.10;99.90
68051;DHT22;54839;51.364;7.246;2023-04-08T04:43:41;4.10;99.90
68051;DHT22;54839;51.364;7.246;2023-04-08T04:46:06;4.00;99.90
68051;DHT22;54839;51.364;7.246;2023-04-08T04:48:34;3.90;99.90
68051;DHT22;54839;51.364;7.246;2023-04-08T04:51:00;4.00;99.90
68051;DHT22;54839;51.364;7.246;2023-04-08T04:53:27;4.10;99.90
68051;DHT22;54839;51.364;7.246;2023-04-08T04:55:53;4.00;99.90
68051;DHT22;54839;51.364;7.246;2023-04-08T04:58:18;4.10;99.90
68051;DHT22;54839;51.364;7.246;2023-04-08T05:00:44;4.00;99.90
68051;DHT22;54839;51.364;7.246;2023-04-08T05:03:11;4.00;99.90
68051;DHT22;54839;51.364;7.246;2023-04-08T05:05:37;4.10;99.90
68051;DHT22;54839;51.364;7.246;2023-04-08T05:08:02;4.20;99.90
68051;DHT22;54839;51.364;7.246;2023-04-08T05:10:28;4.20;99.90
68051;DHT22;54839;51.364;7.246;2023-04-08T05:12:53;4.30;99.90
68051;DHT22;54839;51.364;7.246;2023-04-08T05:15:19;4.30;99.90
68051;DHT22;54839;51.364;7.246;2023-04-08T05:17:45;4.40;99.90
68051;DHT22;54839;51.364;7.246;2023-04-08T05:20:11;4.30;99.90
68051;DHT22;54839;51.364;7.246;2023-04-08T05:22:36;4.30;99.90
68051;DHT22;54839;51.364;7.246;2023-04-08T05:25:02;4.30;99.90
68051;DHT22;54839;51.364;7.246;2023-04-08T05:27:28;4.20;99.90
68051;DHT22;54839;51.364;7.246;2023-04-08T05:29:53;4.10;99.90
68051;DHT22;54839;51.364;7.246;2023-04-08T05:32:19;4.10;99.90
68051;DHT22;54839;51.364;7.246;2023-04-08T05:34:44;4.20;99.90
68051;DHT22;54839;51.364;7.246;2023-04-08T05:37:10;4.30;99.90
68051;DHT22;54839;51.364;7.246;2023-04-08T05:39:35;4.40;99.90
68051;DHT22;54839;51.364;7.246;2023-04-08T05:42:01;4.40;99.90
68051;DHT22;54839;51.364;7.246;2023-04-08T05:44:27;4.50;99.90
68051;DHT22;54839;51.364;7.246;2023-04-08T05:46:52;4.30;99.90
68051;DHT22;54839;51.364;7.246;2023-04-08T05:49:19;4.30;99.90
68051;DHT22;54839;51.364;7.246;2023-04-08T05:51:45;4.40;99.90
68051;DHT22;54839;51.364;7.246;2023-04-08T05:54:10;4.40;99.90
68051;DHT22;54839;51.364;7.246;2023-04-08T05:56:36;4.60;99.90
68051;DHT22;54839;51.364;7.246;2023-04-08T05:59:01;4.60;99.90
68051;DHT22;54839;51.364;7.246;2023-04-08T06:01:27;4.70;99.90
68051;DHT22;54839;51.364;7.246;2023-04-08T06:03:52;4.70;99.90
68051;DHT22;54839;51.364;7.246;2023-04-08T06:06:20;4.70;99.90
68051;DHT22;54839;51.364;7.246;2023-04-08T06:08:46;4.70;99.90
68051;DHT22;54839;51.364;7.246;2023-04-08T06:11:11;4.80;99.90
68051;DHT22;54839;51.364;7.246;2023-04-08T06:13:37;4.80;99.90
68051;DHT22;54839;51.364;7.246;2023-04-08T06:16:10;5.00;99.90
68051;DHT22;54839;51.364;7.246;2023-04-08T06:18:35;4.80;99.90
68051;DHT22;54839;51.364;7.246;2023-04-08T06:21:01;4.80;99.90
68051;DHT22;54839;51.364;7.246;2023-04-08T06:23:27;4.60;99.90
68051;DHT22;54839;51.364;7.246;2023-04-08T06:25:52;4.80;99.90
68051;DHT22;54839;51.364;7.246;2023-04-08T06:28:18;4.80;99.90
68051;DHT22;54839;51.364;7.246;2023-04-08T06:30:44;5.10;99.90
68051;DHT22;54839;51.364;7.246;2023-04-08T06:33:09;5.30;99.90
68051;DHT22;54839;51.364;7.246;2023-04-08T06:35:35;5.30;99.90
68051;DHT22;54839;51.364;7.246;2023-04-08T06:38:03;5.50;99.90
68051;DHT22;54839;51.364;7.246;2023-04-08T06:40:29;5.60;99.90
68051;DHT22;54839;51.364;7.246;2023-04-08T06:42:54;5.80;99.90
68051;DHT22;54839;51.364;7.246;2023-04-08T06:45:20;5.80;99.90
68051;DHT22;54839;51.364;7.246;2023-04-08T06:47:46;5.90;99.90
68051;DHT22;54839;51.364;7.246;2023-04-08T06:50:12;6.00;99.90
68051;DHT22;54839;51.364;7.246;2023-04-08T06:52:37;6.10;99.90
68051;DHT22;54839;51.364;7.246;2023-04-08T06:55:03;6.20;99.90
68051;DHT22;54839;51.364;7.246;2023-04-08T06:57:29;6.30;99.90
68051;DHT22;54839;51.364;7.246;2023-04-08T06:59:54;6.40;99.90
68051;DHT22;54839;51.364;7.246;2023-04-08T07:02:20;6.60;99.90
68051;DHT22;54839;51.364;7.246;2023-04-08T07:04:47;6.70;99.90
68051;DHT22;54839;51.364;7.246;2023-04-08T07:07:12;6.70;99.90
68051;DHT22;54839;51.364;7.246;2023-04-08T07:09:38;6.80;99.90
68051;DHT22;54839;51.364;7.246;2023-04-08T07:12:05;6.80;99.90
68051;DHT22;54839;51.364;7.246;2023-04-08T07:14:31;6.90;99.90
68051;DHT22;54839;51.364;7.246;2023-04-08T07:16:56;7.00;99.90
68051;DHT22;54839;51.364;7.246;2023-04-08T07:19:22;7.10;99.90
68051;DHT22;54839;51.364;7.246;2023-04-08T07:21:48;7.10;99.90
68051;DHT22;54839;51.364;7.246;2023-04-08T07:24:14;7.30;99.90
68051;DHT22;54839;51.364;7.246;2023-04-08T07:26:40;7.40;99.90
68051;DHT22;54839;51.364;7.246;2023-04-08T07:29:06;7.40;99.90
68051;DHT22;54839;51.364;7.246;2023-04-08T07:31:32;7.30;99.90
68051;DHT22;54839;51.364;7.246;2023-04-08T07:33:57;7.40;99.90
68051;DHT22;54839;51.364;7.246;2023-04-08T07:36:23;7.50;99.90
68051;DHT22;54839;51.364;7.246;2023-04-08T07:38:49;7.50;99.90
68051;DHT22;54839;51.364;7.246;2023-04-08T07:41:14;7.50;99.90
68051;DHT22;54839;51.364;7.246;2023-04-08T07:43:40;7.40;99.90
68051;DHT22;54839;51.364;7.246;2023-04-08T07:46:06;7.70;99.90
68051;DHT22;54839;51.364;7.246;2023-04-08T07:48:33;7.90;99.90
68051;DHT22;54839;51.364;7.246;2023-04-08T07:51:06;8.00;99.90
68051;DHT22;54839;51.364;7.246;2023-04-08T07:53:33;8.10;99.90
68051;DHT22;54839;51.364;7.246;2023-04-08T07:55:59;8.20;99.90
68051;DHT22;54839;51.364;7.246;2023-04-08T07:58:25;8.10;99.90
68051;DHT22;54839;51.364;7.246;2023-04-08T08:00:51;8.00;99.90
68051;DHT22;54839;51.364;7.246;2023-04-08T08:03:16;8.00;99.90
68051;DHT22;54839;51.364;7.246;2023-04-08T08:05:42;8.10;99.90
68051;DHT22;54839;51.364;7.246;2023-04-08T08:08:07;8.20;99.90
68051;DHT22;54839;51.364;7.246;2023-04-08T08:10:36;8.30;99.90
68051;DHT22;54839;51.364;7.246;2023-04-08T08:13:02;8.50;99.90
68051;DHT22;54839;51.364;7.246;2023-04-08T08:15:27;8.60;99.90
68051;DHT22;54839;51.364;7.246;2023-04-08T08:17:53;8.70;99.90
68051;DHT22;54839;51.364;7.246;2023-04-08T08:20:18;8.50;99.90
68051;DHT22;54839;51.364;7.246;2023-04-08T08:22:44;8.70;99.90
68051;DHT22;54839;51.364;7.246;2023-04-08T08:25:10;8.90;99.90
68051;DHT22;54839;51.364;7.246;2023-04-08T08:27:35;9.10;99.90
68051;DHT22;54839;51.364;7.246;2023-04-08T08:30:02;9.40;99.90
68051;DHT22;54839;51.364;7.246;2023-04-08T08:32:28;9.40;99.90
68051;DHT22;54839;51.364;7.246;2023-04-08T08:34:53;9.60;99.90
68051;DHT22;54839;51.364;7.246;2023-04-08T08:37:19;9.70;99.90
68051;DHT22;54839;51.364;7.246;2023-04-08T08:39:45;9.80;99.90
68051;DHT22;54839;51.364;7.246;2023-04-08T08:42:21;9.70;99.90
68051;DHT22;54839;51.364;7.246;2023-04-08T08:44:47;9.70;99.90
68051;DHT22;54839;51.364;7.246;2023-04-08T08:47:13;9.30;99.90
68051;DHT22;54839;51.364;7.246;2023-04-08T08:49:39;9.20;99.90
68051;DHT22;54839;51.364;7.246;2023-04-08T08:52:05;9.10;99.90
68051;DHT22;54839;51.364;7.246;2023-04-08T08:54:31;9.20;99.90
68051;DHT22;54839;51.364;7.246;2023-04-08T08:56:57;9.40;99.90
68051;DHT22;54839;51.364;7.246;2023-04-08T08:59:22;9.60;99.90
68051;DHT22;54839;51.364;7.246;2023-04-08T09:01:48;9.80;99.90
68051;DHT22;54839;51.364;7.246;2023-04-08T09:04:18;9.80;99.90
68051;DHT22;54839;51.364;7.246;2023-04-08T09:07:08;9.60;99.90
68051;DHT22;54839;51.364;7.246;2023-04-08T09:09:53;9.70;99.90
68051;DHT22;54839;51.364;7.246;2023-04-08T09:12:19;9.90;99.90
68051;DHT22;54839;51.364;7.246;2023-04-08T09:14:45;10.10;99.90
68051;DHT22;54839;51.364;7.246;2023-04-08T09:17:11;10.20;99.90
68051;DHT22;54839;51.364;7.246;2023-04-08T09:19:36;10.20;99.90
68051;DHT22;54839;51.364;7.246;2023-04-08T09:24:31;10.10;99.90
68051;DHT22;54839;51.364;7.246;2023-04-08T09:26:57;10.40;99.90
68051;DHT22;54839;51.364;7.246;2023-04-08T09:29:24;10.60;99.90
68051;DHT22;54839;51.364;7.246;2023-04-08T09:31:54;10.70;99.90
68051;DHT22;54839;51.364;7.246;2023-04-08T09:34:20;11.00;99.90
68051;DHT22;54839;51.364;7.246;2023-04-08T09:36:48;11.10;99.90
68051;DHT22;54839;51.364;7.246;2023-04-08T09:39:14;11.10;99.90
68051;DHT22;54839;51.364;7.246;2023-04-08T09:41:40;11.10;99.90
68051;DHT22;54839;51.364;7.246;2023-04-08T09:44:08;11.10;99.90
68051;DHT22;54839;51.364;7.246;2023-04-08T09:46:53;11.10;99.90
68051;DHT22;54839;51.364;7.246;2023-04-08T09:49:28;11.20;99.90
68051;DHT22;54839;51.364;7.246;2023-04-08T09:52:06;11.20;99.90
68051;DHT22;54839;51.364;7.246;2023-04-08T09:55:08;11.20;99.90
68051;DHT22;54839;51.364;7.246;2023-04-08T10:02:40;11.30;99.90
68051;DHT22;54839;51.364;7.246;2023-04-08T10:05:12;11.00;99.90
68051;DHT22;54839;51.364;7.246;2023-04-08T10:07:38;10.70;99.90
68051;DHT22;54839;51.364;7.246;2023-04-08T10:10:04;10.40;99.90
68051;DHT22;54839;51.364;7.246;2023-04-08T10:12:31;10.20;99.90
68051;DHT22;54839;51.364;7.246;2023-04-08T10:23:05;9.80;99.90
68051;DHT22;54839;51.364;7.246;2023-04-08T10:30:43;9.60;99.90
68051;DHT22;54839;51.364;7.246;2023-04-08T10:33:23;9.70;99.90
68051;DHT22;54839;51.364;7.246;2023-04-08T10:35:54;9.80;99.90
68051;DHT22;54839;51.364;7.246;2023-04-08T10:38:20;9.80;99.90
68051;DHT22;54839;51.364;7.246;2023-04-08T10:40:47;10.00;99.90
68051;DHT22;54839;51.364;7.246;2023-04-08T10:43:14;9.90;99.90
68051;DHT22;54839;51.364;7.246;2023-04-08T10:45:41;10.10;99.90
68051;DHT22;54839;51.364;7.246;2023-04-08T10:48:15;10.10;99.90
68051;DHT22;54839;51.364;7.246;2023-04-08T10:50:58;10.00;99.90
68051;DHT22;54839;51.364;7.246;2023-04-08T10:56:02;10.30;99.90
68051;DHT22;54839;51.364;7.246;2023-04-08T10:58:27;10.20;99.90
68051;DHT22;54839;51.364;7.246;2023-04-08T11:00:54;10.20;99.90
68051;DHT22;54839;51.364;7.246;2023-04-08T11:03:20;10.40;99.90
68051;DHT22;54839;51.364;7.246;2023-04-08T11:05:48;10.30;99.90
68051;DHT22;54839;51.364;7.246;2023-04-08T11:08:14;10.40;99.90
68051;DHT22;54839;51.364;7.246;2023-04-08T11:10:39;10.20;99.90
68051;DHT22;54839;51.364;7.246;2023-04-08T11:13:06;10.50;99.90
68051;DHT22;54839;51.364;7.246;2023-04-08T11:15:34;10.70;99.90
68051;DHT22;54839;51.364;7.246;2023-04-08T11:18:02;10.70;99.90
68051;DHT22;54839;51.364;7.246;2023-04-08T11:20:28;10.90;99.90
68051;DHT22;54839;51.364;7.246;2023-04-08T11:22:53;10.90;99.90
68051;DHT22;54839;51.364;7.246;2023-04-08T11:25:19;11.20;99.90
68051;DHT22;54839;51.364;7.246;2023-04-08T11:27:46;11.30;99.90
68051;DHT22;54839;51.364;7.246;2023-04-08T11:30:13;11.10;99.90
68051;DHT22;54839;51.364;7.246;2023-04-08T11:32:38;11.40;99.90
68051;DHT22;54839;51.364;7.246;2023-04-08T11:35:05;11.50;99.90
68051;DHT22;54839;51.364;7.246;2023-04-08T11:37:40;11.70;99.90
68051;DHT22;54839;51.364;7.246;2023-04-08T11:40:08;11.80;99.90
68051;DHT22;54839;51.364;7.246;2023-04-08T11:42:33;12.20;99.90
68051;DHT22;54839;51.364;7.246;2023-04-08T11:44:59;12.10;99.90
68051;DHT22;54839;51.364;7.246;2023-04-08T11:47:32;12.10;99.90
68051;DHT22;54839;51.364;7.246;2023-04-08T11:49:58;12.30;99.90
68051;DHT22;54839;51.364;7.246;2023-04-08T11:55:06;12.30;99.90
68051;DHT22;54839;51.364;7.246;2023-04-08T11:57:32;12.20;99.90
68051;DHT22;54839;51.364;7.246;2023-04-08T11:59:57;12.00;99.90
68051;DHT22;54839;51.364;7.246;2023-04-08T12:02:23;12.00;99.90
68051;DHT22;54839;51.364;7.246;2023-04-08T12:04:48;12.00;99.90
68051;DHT22;54839;51.364;7.246;2023-04-08T12:07:14;11.80;99.90
68051;DHT22;54839;51.364;7.246;2023-04-08T12:09:39;11.80;99.90
68051;DHT22;54839;51.364;7.246;2023-04-08T12:12:05;11.90;99.90
68051;DHT22;54839;51.364;7.246;2023-04-08T12:14:31;11.90;99.90
68051;DHT22;54839;51.364;7.246;2023-04-08T12:16:56;11.80;99.90
68051;DHT22;54839;51.364;7.246;2023-04-08T12:19:22;12.10;99.90
68051;DHT22;54839;51.364;7.246;2023-04-08T12:21:48;12.60;99.90
68051;DHT22;54839;51.364;7.246;2023-04-08T12:24:13;12.70;99.90
68051;DHT22;54839;51.364;7.246;2023-04-08T12:26:39;12.60;99.90
68051;DHT22;54839;51.364;7.246;2023-04-08T12:29:05;12.60;99.90
68051;DHT22;54839;51.364;7.246;2023-04-08T12:31:30;12.30;99.90
68051;DHT22;54839;51.364;7.246;2023-04-08T12:33:56;12.20;99.90
68051;DHT22;54839;51.364;7.246;2023-04-08T12:36:21;12.10;99.90
68051;DHT22;54839;51.364;7.246;2023-04-08T12:38:47;12.30;99.90
68051;DHT22;54839;51.364;7.246;2023-04-08T12:41:12;12.20;99.90
68051;DHT22;54839;51.364;7.246;2023-04-08T12:43:38;12.10;99.90
68051;DHT22;54839;51.364;7.246;2023-04-08T12:46:04;12.00;99.90
68051;DHT22;54839;51.364;7.246;2023-04-08T12:48:29;12.10;99.90
68051;DHT22;54839;51.364;7.246;2023-04-08T12:50:55;12.20;99.90
68051;DHT22;54839;51.364;7.246;2023-04-08T12:53:21;12.30;99.90
68051;DHT22;54839;51.364;7.246;2023-04-08T12:55:46;12.40;99.90
68051;DHT22;54839;51.364;7.246;2023-04-08T12:58:12;12.30;99.90
68051;DHT22;54839;51.364;7.246;2023-04-08T13:00:38;12.00;99.90
68051;DHT22;54839;51.364;7.246;2023-04-08T13:03:04;11.60;99.90
68051;DHT22;54839;51.364;7.246;2023-04-08T13:05:30;11.20;99.90
68051;DHT22;54839;51.364;7.246;2023-04-08T13:07:56;11.10;99.90
68051;DHT22;54839;51.364;7.246;2023-04-08T13:10:21;11.00;99.90
68051;DHT22;54839;51.364;7.246;2023-04-08T13:12:47;11.00;99.90
68051;DHT22;54839;51.364;7.246;2023-04-08T13:15:13;11.00;99.90
68051;DHT22;54839;51.364;7.246;2023-04-08T13:17:38;11.10;99.90
68051;DHT22;54839;51.364;7.246;2023-04-08T13:20:04;11.20;99.90
68051;DHT22;54839;51.364;7.246;2023-04-08T13:22:30;11.30;99.90
68051;DHT22;54839;51.364;7.246;2023-04-08T13:24:57;11.60;99.90
68051;DHT22;54839;51.364;7.246;2023-04-08T13:27:23;11.50;99.90
68051;DHT22;54839;51.364;7.246;2023-04-08T13:29:48;11.40;99.90
68051;DHT22;54839;51.364;7.246;2023-04-08T13:32:14;11.40;99.90
68051;DHT22;54839;51.364;7.246;2023-04-08T13:34:40;11.60;99.90
68051;DHT22;54839;51.364;7.246;2023-04-08T13:37:06;11.80;99.90
68051;DHT22;54839;51.364;7.246;2023-04-08T13:39:32;11.90;99.90
68051;DHT22;54839;51.364;7.246;2023-04-08T13:41:57;11.80;99.90
68051;DHT22;54839;51.364;7.246;2023-04-08T13:44:23;11.80;99.90
68051;DHT22;54839;51.364;7.246;2023-04-08T13:46:49;11.80;99.90
68051;DHT22;54839;51.364;7.246;2023-04-08T13:49:15;11.80;99.90
68051;DHT22;54839;51.364;7.246;2023-04-08T13:51:40;11.70;99.90
68051;DHT22;54839;51.364;7.246;2023-04-08T13:54:06;11.70;99.90
68051;DHT22;54839;51.364;7.246;2023-04-08T13:56:31;11.40;99.90
68051;DHT22;54839;51.364;7.246;2023-04-08T13:58:57;11.20;99.90
68051;DHT22;54839;51.364;7.246;2023-04-08T14:01:22;11.30;99.90
68051;DHT22;54839;51.364;7.246;2023-04-08T14:03:48;11.20;99.90
68051;DHT22;54839;51.364;7.246;2023-04-08T14:06:14;11.10;99.90
68051;DHT22;54839;51.364;7.246;2023-04-08T14:08:40;10.90;99.90
68051;DHT22;54839;51.364;7.246;2023-04-08T14:11:05;11.00;99.90
68051;DHT22;54839;51.364;7.246;2023-04-08T14:13:31;11.10;99.90
68051;DHT22;54839;51.364;7.246;2023-04-08T14:15:56;11.00;99.90
68051;DHT22;54839;51.364;7.246;2023-04-08T14:18:23;11.00;99.90
68051;DHT22;54839;51.364;7.246;2023-04-08T14:20:48;11.10;99.90
68051;DHT22;54839;51.364;7.246;2023-04-08T14:23:14;11.00;99.90
68051;DHT22;54839;51.364;7.246;2023-04-08T14:25:41;11.10;99.90
68051;DHT22;54839;51.364;7.246;2023-04-08T14:28:07;11.00;99.90
68051;DHT22;54839;51.364;7.246;2023-04-08T14:30:32;11.10;99.90
68051;DHT22;54839;51.364;7.246;2023-04-08T14:32:59;11.00;99.90
68051;DHT22;54839;51.364;7.246;2023-04-08T14:35:25;10.90;99.90
68051;DHT22;54839;51.364;7.246;2023-04-08T14:37:51;10.90;99.90
68051;DHT22;54839;51.364;7.246;2023-04-08T14:40:16;11.00;99.90
68051;DHT22;54839;51.364;7.246;2023-04-08T14:42:42;11.00;99.90
68051;DHT22;54839;51.364;7.246;2023-04-08T14:45:09;10.80;99.90
68051;DHT22;54839;51.364;7.246;2023-04-08T14:47:35;10.80;99.90
68051;DHT22;54839;51.364;7.246;2023-04-08T14:50:01;10.90;99.90
68051;DHT22;54839;51.364;7.246;2023-04-08T14:52:26;10.80;99.90
68051;DHT22;54839;51.364;7.246;2023-04-08T14:54:52;10.80;99.90
68051;DHT22;54839;51.364;7.246;2023-04-08T14:57:18;10.70;99.90
68051;DHT22;54839;51.364;7.246;2023-04-08T14:59:44;10.90;99.90
68051;DHT22;54839;51.364;7.246;2023-04-08T15:02:10;10.80;99.90
68051;DHT22;54839;51.364;7.246;2023-04-08T15:04:36;10.70;99.90
68051;DHT22;54839;51.364;7.246;2023-04-08T15:07:02;10.50;99.90
68051;DHT22;54839;51.364;7.246;2023-04-08T15:09:28;10.50;99.90
68051;DHT22;54839;51.364;7.246;2023-04-08T15:11:53;10.60;99.90
68051;DHT22;54839;51.364;7.246;2023-04-08T15:14:19;10.80;99.90
68051;DHT22;54839;51.364;7.246;2023-04-08T15:16:44;10.80;99.90
68051;DHT22;54839;51.364;7.246;2023-04-08T15:19:10;10.90;99.90
68051;DHT22;54839;51.364;7.246;2023-04-08T15:21:35;11.20;99.90
68051;DHT22;54839;51.364;7.246;2023-04-08T15:24:01;11.10;99.90
68051;DHT22;54839;51.364;7.246;2023-04-08T15:26:26;11.30;99.90
68051;DHT22;54839;51.364;7.246;2023-04-08T15:28:53;11.10;99.90
68051;DHT22;54839;51.364;7.246;2023-04-08T15:31:19;10.80;99.90
68051;DHT22;54839;51.364;7.246;2023-04-08T15:33:44;10.60;99.90
68051;DHT22;54839;51.364;7.246;2023-04-08T15:36:10;10.50;99.90
68051;DHT22;54839;51.364;7.246;2023-04-08T15:38:36;10.60;99.90
68051;DHT22;54839;51.364;7.246;2023-04-08T15:41:02;10.60;99.90
68051;DHT22;54839;51.364;7.246;2023-04-08T15:43:27;10.70;99.90
68051;DHT22;54839;51.364;7.246;2023-04-08T15:45:53;10.80;99.90
68051;DHT22;54839;51.364;7.246;2023-04-08T15:48:18;10.80;99.90
68051;DHT22;54839;51.364;7.246;2023-04-08T15:50:44;10.90;99.90
68051;DHT22;54839;51.364;7.246;2023-04-08T15:53:10;11.00;99.90
68051;DHT22;54839;51.364;7.246;2023-04-08T15:55:39;10.90;99.90
68051;DHT22;54839;51.364;7.246;2023-04-08T15:58:05;10.70;99.90
68051;DHT22;54839;51.364;7.246;2023-04-08T16:00:30;10.80;99.90
68051;DHT22;54839;51.364;7.246;2023-04-08T16:02:56;10.70;99.90
68051;DHT22;54839;51.364;7.246;2023-04-08T16:05:22;10.60;99.90